sensor_id;sensor_type;location;lat;lon;timestamp;P1;durP1;ratioP1;P2;durP2;ratioP2
49177;SDS011;35016;55.674;37.468;2022-12-31T00:01:44;11.52;;;6.72;;
49177;SDS011;35016;55.674;37.468;2022-12-31T00:04:13;17.35;;;6.95;;
49177;SDS011;35016;55.674;37.468;2022-12-31T00:06:41;11.38;;;6.53;;
49177;SDS011;35016;55.674;37.468;2022-12-31T00:09:08;10.40;;;5.80;;
49177;SDS011;35016;55.674;37.468;2022-12-31T00:11:39;12.18;;;6.93;;
49177;SDS011;35016;55.674;37.468;2022-12-31T00:14:06;14.15;;;7.40;;
49177;SDS011;35016;55.674;37.468;2022-12-31T00:16:38;12.27;;;7.07;;
49177;SDS011;35016;55.674;37.468;2022-12-31T00:19:13;12.75;;;7.25;;
49177;SDS011;35016;55.674;37.468;2022-12-31T00:21:49;12.75;;;5.85;;
49177;SDS011;35016;55.674;37.468;2022-12-31T00:24:20;11.48;;;5.43;;
49177;SDS011;35016;55.674;37.468;2022-12-31T00:26:49;8.88;;;4.63;;
49177;SDS011;35016;55.674;37.468;2022-12-31T00:29:19;10.82;;;5.55;;
49177;SDS011;35016;55.674;37.468;2022-12-31T00:31:49;9.60;;;4.90;;
49177;SDS011;35016;55.674;37.468;2022-12-31T00:34:19;10.60;;;6.70;;
49177;SDS011;35016;55.674;37.468;2022-12-31T00:36:48;9.90;;;5.97;;
49177;SDS011;35016;55.674;37.468;2022-12-31T00:39:18;11.07;;;5.15;;
49177;SDS011;35016;55.674;37.468;2022-12-31T00:41:45;10.43;;;4.85;;
49177;SDS011;35016;55.674;37.468;2022-12-31T00:44:18;10.25;;;4.82;;
49177;SDS011;35016;55.674;37.468;2022-12-31T00:46:45;10.57;;;4.63;;
49177;SDS011;35016;55.674;37.468;2022-12-31T00:49:12;9.40;;;4.70;;
49177;SDS011;35016;55.674;37.468;2022-12-31T00:51:39;12.00;;;5.40;;
49177;SDS011;35016;55.674;37.468;2022-12-31T00:54:06;10.80;;;5.38;;
49177;SDS011;35016;55.674;37.468;2022-12-31T00:56:48;11.20;;;6.13;;
49177;SDS011;35016;55.674;37.468;2022-12-31T00:59:20;11.63;;;5.18;;
49177;SDS011;35016;55.674;37.468;2022-12-31T01:01:47;10.13;;;4.18;;
49177;SDS011;35016;55.674;37.468;2022-12-31T01:04:18;10.43;;;5.28;;
49177;SDS011;35016;55.674;37.468;2022-12-31T01:06:46;9.90;;;4.43;;
49177;SDS011;35016;55.674;37.468;2022-12-31T01:09:16;11.02;;;6.05;;
49177;SDS011;35016;55.674;37.468;2022-12-31T01:11:48;10.90;;;4.40;;
49177;SDS011;35016;55.674;37.468;2022-12-31T01:14:18;10.52;;;5.68;;
49177;SDS011;35016;55.674;37.468;2022-12-31T01:16:51;9.00;;;4.53;;
49177;SDS011;35016;55.674;37.468;2022-12-31T01:19:24;10.10;;;5.18;;
49177;SDS011;35016;55.674;37.468;2022-12-31T01:22:00;11.90;;;4.93;;
49177;SDS011;35016;55.674;37.468;2022-12-31T01:24:30;9.80;;;5.15;;
49177;SDS011;35016;55.674;37.468;2022-12-31T01:26:57;10.60;;;4.70;;
49177;SDS011;35016;55.674;37.468;2022-12-31T01:29:27;9.35;;;4.38;;
49177;SDS011;35016;55.674;37.468;2022-12-31T01:31:55;9.52;;;4.32;;
49177;SDS011;35016;55.674;37.468;2022-12-31T01:34:24;9.32;;;4.53;;
49177;SDS011;35016;55.674;37.468;2022-12-31T01:36:51;9.93;;;4.45;;
49177;SDS011;35016;55.674;37.468;2022-12-31T01:39:18;10.70;;;4.45;;
49177;SDS011;35016;55.674;37.468;2022-12-31T01:41:48;8.82;;;4.60;;
49177;SDS011;35016;55.674;37.468;2022-12-31T01:47:01;10.25;;;4.35;;
49177;SDS011;35016;55.674;37.468;2022-12-31T01:52:21;10.02;;;5.13;;
49177;SDS011;35016;55.674;37.468;2022-12-31T01:54:56;10.18;;;5.13;;
49177;SDS011;35016;55.674;37.468;2022-12-31T01:57:31;9.43;;;4.78;;
49177;SDS011;35016;55.674;37.468;2022-12-31T02:00:00;10.68;;;4.85;;
49177;SDS011;35016;55.674;37.468;2022-12-31T02:02:34;9.10;;;4.25;;
49177;SDS011;35016;55.674;37.468;2022-12-31T02:05:02;8.00;;;3.78;;
49177;SDS011;35016;55.674;37.468;2022-12-31T02:07:38;8.90;;;4.60;;
49177;SDS011;35016;55.674;37.468;2022-12-31T02:10:07;10.88;;;5.18;;
49177;SDS011;35016;55.674;37.468;2022-12-31T02:12:36;9.77;;;4.32;;
49177;SDS011;35016;55.674;37.468;2022-12-31T02:21:23;8.55;;;3.85;;
49177;SDS011;35016;55.674;37.468;2022-12-31T02:27:18;9.98;;;4.20;;
49177;SDS011;35016;55.674;37.468;2022-12-31T02:36:00;9.93;;;3.85;;
49177;SDS011;35016;55.674;37.468;2022-12-31T02:38:32;9.57;;;4.25;;
49177;SDS011;35016;55.674;37.468;2022-12-31T02:41:02;10.15;;;4.78;;
49177;SDS011;35016;55.674;37.468;2022-12-31T02:43:32;7.47;;;3.05;;
49177;SDS011;35016;55.674;37.468;2022-12-31T02:49:05;9.05;;;4.15;;
49177;SDS011;35016;55.674;37.468;2022-12-31T02:52:05;8.73;;;4.13;;
49177;SDS011;35016;55.674;37.468;2022-12-31T02:54:54;8.00;;;3.20;;
49177;SDS011;35016;55.674;37.468;2022-12-31T03:00:37;8.10;;;3.10;;
49177;SDS011;35016;55.674;37.468;2022-12-31T03:03:35;7.50;;;3.10;;
49177;SDS011;35016;55.674;37.468;2022-12-31T03:06:08;6.68;;;2.95;;
49177;SDS011;35016;55.674;37.468;2022-12-31T03:08:40;10.10;;;3.60;;
49177;SDS011;35016;55.674;37.468;2022-12-31T03:11:31;8.30;;;3.42;;
49177;SDS011;35016;55.674;37.468;2022-12-31T03:14:20;7.25;;;3.08;;
49177;SDS011;35016;55.674;37.468;2022-12-31T03:16:47;6.57;;;2.65;;
49177;SDS011;35016;55.674;37.468;2022-12-31T03:19:16;8.27;;;3.47;;
49177;SDS011;35016;55.674;37.468;2022-12-31T03:22:05;8.82;;;3.35;;
49177;SDS011;35016;55.674;37.468;2022-12-31T03:24:50;8.52;;;3.17;;
49177;SDS011;35016;55.674;37.468;2022-12-31T03:27:38;8.20;;;3.67;;
49177;SDS011;35016;55.674;37.468;2022-12-31T03:30:06;7.10;;;3.33;;
49177;SDS011;35016;55.674;37.468;2022-12-31T03:32:43;8.13;;;3.65;;
49177;SDS011;35016;55.674;37.468;2022-12-31T03:35:21;8.02;;;3.33;;
49177;SDS011;35016;55.674;37.468;2022-12-31T03:37:53;8.30;;;3.35;;
49177;SDS011;35016;55.674;37.468;2022-12-31T03:40:25;9.10;;;3.05;;
49177;SDS011;35016;55.674;37.468;2022-12-31T03:42:55;8.70;;;3.38;;
49177;SDS011;35016;55.674;37.468;2022-12-31T03:45:28;10.00;;;3.78;;
49177;SDS011;35016;55.674;37.468;2022-12-31T03:48:06;6.68;;;3.08;;
49177;SDS011;35016;55.674;37.468;2022-12-31T03:50:36;8.40;;;3.60;;
49177;SDS011;35016;55.674;37.468;2022-12-31T03:53:10;9.05;;;3.70;;
49177;SDS011;35016;55.674;37.468;2022-12-31T03:56:11;7.72;;;3.45;;
49177;SDS011;35016;55.674;37.468;2022-12-31T03:58:41;9.77;;;4.10;;
49177;SDS011;35016;55.674;37.468;2022-12-31T04:01:08;8.10;;;3.47;;
49177;SDS011;35016;55.674;37.468;2022-12-31T04:03:40;8.35;;;3.28;;
49177;SDS011;35016;55.674;37.468;2022-12-31T04:06:07;8.82;;;3.38;;
49177;SDS011;35016;55.674;37.468;2022-12-31T04:08:55;8.68;;;3.53;;
49177;SDS011;35016;55.674;37.468;2022-12-31T04:11:26;8.80;;;3.00;;
49177;SDS011;35016;55.674;37.468;2022-12-31T04:13:58;9.95;;;4.18;;
49177;SDS011;35016;55.674;37.468;2022-12-31T04:16:25;8.95;;;4.15;;
49177;SDS011;35016;55.674;37.468;2022-12-31T04:18:57;10.05;;;4.20;;
49177;SDS011;35016;55.674;37.468;2022-12-31T04:21:30;9.63;;;3.90;;
49177;SDS011;35016;55.674;37.468;2022-12-31T04:24:01;9.23;;;4.03;;
49177;SDS011;35016;55.674;37.468;2022-12-31T04:26:30;7.15;;;2.90;;
49177;SDS011;35016;55.674;37.468;2022-12-31T04:29:05;7.47;;;3.30;;
49177;SDS011;35016;55.674;37.468;2022-12-31T04:31:37;8.50;;;3.95;;
49177;SDS011;35016;55.674;37.468;2022-12-31T04:34:11;9.18;;;3.88;;
49177;SDS011;35016;55.674;37.468;2022-12-31T04:36:48;9.07;;;3.55;;
49177;SDS011;35016;55.674;37.468;2022-12-31T04:39:15;8.85;;;3.25;;
49177;SDS011;35016;55.674;37.468;2022-12-31T04:41:43;9.82;;;4.13;;
49177;SDS011;35016;55.674;37.468;2022-12-31T04:44:11;8.48;;;3.28;;
49177;SDS011;35016;55.674;37.468;2022-12-31T04:46:38;8.20;;;3.35;;
49177;SDS011;35016;55.674;37.468;2022-12-31T04:49:10;8.80;;;4.13;;
49177;SDS011;35016;55.674;37.468;2022-12-31T04:51:40;8.07;;;3.67;;
49177;SDS011;35016;55.674;37.468;2022-12-31T04:54:07;7.93;;;3.50;;
49177;SDS011;35016;55.674;37.468;2022-12-31T04:56:36;8.05;;;3.55;;
49177;SDS011;35016;55.674;37.468;2022-12-31T04:59:06;9.88;;;4.20;;
49177;SDS011;35016;55.674;37.468;2022-12-31T05:01:37;8.43;;;3.63;;
49177;SDS011;35016;55.674;37.468;2022-12-31T05:04:07;8.85;;;3.72;;
49177;SDS011;35016;55.674;37.468;2022-12-31T05:06:34;8.90;;;4.00;;
49177;SDS011;35016;55.674;37.468;2022-12-31T05:09:02;8.43;;;3.45;;
49177;SDS011;35016;55.674;37.468;2022-12-31T05:11:30;8.93;;;3.40;;
49177;SDS011;35016;55.674;37.468;2022-12-31T05:13:57;11.23;;;4.38;;
49177;SDS011;35016;55.674;37.468;2022-12-31T05:16:24;8.48;;;4.05;;
49177;SDS011;35016;55.674;37.468;2022-12-31T05:18:53;9.60;;;3.58;;
49177;SDS011;35016;55.674;37.468;2022-12-31T05:21:20;10.48;;;4.95;;
49177;SDS011;35016;55.674;37.468;2022-12-31T05:23:48;10.57;;;4.65;;
49177;SDS011;35016;55.674;37.468;2022-12-31T05:26:15;9.52;;;4.28;;
49177;SDS011;35016;55.674;37.468;2022-12-31T05:28:42;10.20;;;3.95;;
49177;SDS011;35016;55.674;37.468;2022-12-31T05:31:09;11.45;;;4.93;;
49177;SDS011;35016;55.674;37.468;2022-12-31T05:33:36;8.93;;;4.38;;
49177;SDS011;35016;55.674;37.468;2022-12-31T05:36:03;8.93;;;4.03;;
49177;SDS011;35016;55.674;37.468;2022-12-31T05:38:30;8.48;;;4.03;;
49177;SDS011;35016;55.674;37.468;2022-12-31T05:40:58;11.57;;;4.20;;
49177;SDS011;35016;55.674;37.468;2022-12-31T05:43:29;9.40;;;4.28;;
49177;SDS011;35016;55.674;37.468;2022-12-31T05:46:01;9.65;;;4.45;;
49177;SDS011;35016;55.674;37.468;2022-12-31T05:48:29;7.50;;;3.63;;
49177;SDS011;35016;55.674;37.468;2022-12-31T05:50:56;8.65;;;3.92;;
49177;SDS011;35016;55.674;37.468;2022-12-31T05:53:24;8.50;;;4.13;;
49177;SDS011;35016;55.674;37.468;2022-12-31T05:55:51;9.23;;;4.20;;
49177;SDS011;35016;55.674;37.468;2022-12-31T05:58:18;8.07;;;3.33;;
49177;SDS011;35016;55.674;37.468;2022-12-31T06:00:45;8.95;;;3.97;;
49177;SDS011;35016;55.674;37.468;2022-12-31T06:03:13;9.00;;;4.65;;
49177;SDS011;35016;55.674;37.468;2022-12-31T06:05:41;10.50;;;3.78;;
49177;SDS011;35016;55.674;37.468;2022-12-31T06:08:09;9.55;;;3.65;;
49177;SDS011;35016;55.674;37.468;2022-12-31T06:10:39;8.20;;;3.67;;
49177;SDS011;35016;55.674;37.468;2022-12-31T06:13:10;9.98;;;4.50;;
49177;SDS011;35016;55.674;37.468;2022-12-31T06:15:38;9.55;;;4.07;;
49177;SDS011;35016;55.674;37.468;2022-12-31T06:18:06;9.10;;;4.07;;
49177;SDS011;35016;55.674;37.468;2022-12-31T06:20:36;9.77;;;4.03;;
49177;SDS011;35016;55.674;37.468;2022-12-31T06:23:04;10.27;;;4.10;;
49177;SDS011;35016;55.674;37.468;2022-12-31T06:25:33;8.85;;;3.78;;
49177;SDS011;35016;55.674;37.468;2022-12-31T06:28:04;8.98;;;4.05;;
49177;SDS011;35016;55.674;37.468;2022-12-31T06:30:31;9.50;;;3.95;;
49177;SDS011;35016;55.674;37.468;2022-12-31T06:32:59;11.95;;;4.93;;
49177;SDS011;35016;55.674;37.468;2022-12-31T06:35:26;10.68;;;5.15;;
49177;SDS011;35016;55.674;37.468;2022-12-31T06:37:53;9.73;;;4.63;;
49177;SDS011;35016;55.674;37.468;2022-12-31T06:40:20;11.25;;;4.75;;
49177;SDS011;35016;55.674;37.468;2022-12-31T06:42:48;9.25;;;3.95;;
49177;SDS011;35016;55.674;37.468;2022-12-31T06:45:23;11.35;;;4.68;;
49177;SDS011;35016;55.674;37.468;2022-12-31T06:47:50;10.15;;;4.45;;
49177;SDS011;35016;55.674;37.468;2022-12-31T06:50:17;11.45;;;5.30;;
49177;SDS011;35016;55.674;37.468;2022-12-31T06:52:44;10.38;;;4.20;;
49177;SDS011;35016;55.674;37.468;2022-12-31T06:55:15;8.55;;;4.28;;
49177;SDS011;35016;55.674;37.468;2022-12-31T06:57:42;10.77;;;5.60;;
49177;SDS011;35016;55.674;37.468;2022-12-31T07:00:11;10.40;;;5.03;;
49177;SDS011;35016;55.674;37.468;2022-12-31T07:08:50;9.80;;;4.18;;
49177;SDS011;35016;55.674;37.468;2022-12-31T07:11:35;11.65;;;5.03;;
49177;SDS011;35016;55.674;37.468;2022-12-31T07:14:20;9.35;;;5.05;;
49177;SDS011;35016;55.674;37.468;2022-12-31T07:19:58;10.43;;;4.93;;
49177;SDS011;35016;55.674;37.468;2022-12-31T07:22:29;9.57;;;3.63;;
49177;SDS011;35016;55.674;37.468;2022-12-31T07:25:15;10.57;;;4.57;;
49177;SDS011;35016;55.674;37.468;2022-12-31T07:33:13;9.32;;;4.15;;
49177;SDS011;35016;55.674;37.468;2022-12-31T07:36:28;10.05;;;4.72;;
49177;SDS011;35016;55.674;37.468;2022-12-31T07:39:57;10.85;;;4.45;;
49177;SDS011;35016;55.674;37.468;2022-12-31T07:42:14;8.80;;;3.65;;
49177;SDS011;35016;55.674;37.468;2022-12-31T07:47:46;9.23;;;3.97;;
49177;SDS011;35016;55.674;37.468;2022-12-31T07:50:26;9.32;;;4.72;;
49177;SDS011;35016;55.674;37.468;2022-12-31T07:52:54;9.32;;;5.20;;
49177;SDS011;35016;55.674;37.468;2022-12-31T07:55:25;10.43;;;4.60;;
49177;SDS011;35016;55.674;37.468;2022-12-31T07:58:07;10.75;;;6.05;;
49177;SDS011;35016;55.674;37.468;2022-12-31T08:01:00;8.35;;;3.55;;
49177;SDS011;35016;55.674;37.468;2022-12-31T08:11:34;13.02;;;5.30;;
49177;SDS011;35016;55.674;37.468;2022-12-31T08:14:10;10.20;;;5.45;;
49177;SDS011;35016;55.674;37.468;2022-12-31T08:16:39;14.75;;;5.00;;
49177;SDS011;35016;55.674;37.468;2022-12-31T08:19:34;11.32;;;5.30;;
49177;SDS011;35016;55.674;37.468;2022-12-31T08:22:20;10.52;;;4.07;;
49177;SDS011;35016;55.674;37.468;2022-12-31T08:40:34;11.60;;;4.75;;
49177;SDS011;35016;55.674;37.468;2022-12-31T08:46:21;11.57;;;5.25;;
49177;SDS011;35016;55.674;37.468;2022-12-31T08:49:11;11.35;;;5.40;;
49177;SDS011;35016;55.674;37.468;2022-12-31T08:52:02;14.68;;;7.43;;
49177;SDS011;35016;55.674;37.468;2022-12-31T08:55:41;14.30;;;7.20;;
49177;SDS011;35016;55.674;37.468;2022-12-31T09:01:14;14.98;;;7.90;;
49177;SDS011;35016;55.674;37.468;2022-12-31T09:04:14;12.05;;;6.85;;
49177;SDS011;35016;55.674;37.468;2022-12-31T09:07:07;14.07;;;8.43;;
49177;SDS011;35016;55.674;37.468;2022-12-31T09:10:02;14.15;;;8.77;;
49177;SDS011;35016;55.674;37.468;2022-12-31T09:18:55;15.52;;;6.15;;
49177;SDS011;35016;55.674;37.468;2022-12-31T09:21:25;13.32;;;7.85;;
49177;SDS011;35016;55.674;37.468;2022-12-31T09:23:52;12.32;;;7.18;;
49177;SDS011;35016;55.674;37.468;2022-12-31T09:34:12;11.52;;;5.95;;
49177;SDS011;35016;55.674;37.468;2022-12-31T09:36:45;11.15;;;5.75;;
